Time;durP1;ratioP1;P1;durP2;ratioP2;P2;SDS_P1;SDS_P2;PMS_P1;PMS_P2;Temp;Humidity;BMP_temperature;BMP_pressure;BME280_temperature;BME280_humidity;BME280_pressure;Samples;Min_cycle;Max_cycle;Signal;HPM_P1;HPM_P2
2021/03/27 00:00:29;;;;;;;9.75;8.10;;;6.60;99.90;;;;;;2081259;28;20274;-69
2021/03/27 00:01:42;;;;;;;9.85;7.55;;;6.60;99.90;;;;;;2073121;28;20176;-69
2021/03/27 00:02:56;;;;;;;9.18;7.25;;;6.60;99.90;;;;;;2073891;28;20215;-69
2021/03/27 00:04:35;;;;;;;10.05;7.75;;;6.60;99.90;;;;;;2065643;28;20233;-68
2021/03/27 00:05:44;;;;;;;11.10;7.95;;;6.50;99.90;;;;;;2059825;28;20194;-69
2021/03/27 00:06:52;;;;;;;10.35;7.90;;;6.60;99.90;;;;;;2066454;28;20166;-69
2021/03/27 00:08:34;;;;;;;13.05;9.10;;;6.50;99.90;;;;;;2066457;28;20394;-69
2021/03/27 00:09:38;;;;;;;12.10;9.43;;;6.60;99.90;;;;;;2079215;28;20173;-69
2021/03/27 00:11:09;;;;;;;14.57;10.10;;;6.60;99.90;;;;;;2081019;28;20180;-69
2021/03/27 00:12:36;;;;;;;12.48;9.63;;;6.60;99.90;;;;;;2080825;28;20193;-69
2021/03/27 00:13:59;;;;;;;13.68;10.48;;;6.60;99.90;;;;;;2081469;28;20597;-69
2021/03/27 00:15:20;;;;;;;13.57;9.45;;;6.60;99.90;;;;;;2081457;28;20202;-68
2021/03/27 00:16:38;;;;;;;12.73;9.35;;;6.60;99.90;;;;;;2079340;28;20169;-69
2021/03/27 00:17:46;;;;;;;15.25;11.15;;;6.60;99.90;;;;;;2074142;28;20170;-69
2021/03/27 00:19:11;;;;;;;13.60;10.07;;;6.60;99.90;;;;;;2073171;28;20182;-69
2021/03/27 00:20:24;;;;;;;11.93;9.57;;;6.60;99.90;;;;;;2077308;28;20187;-69
2021/03/27 00:21:50;;;;;;;16.77;10.85;;;6.60;99.90;;;;;;2079448;28;20169;-69
2021/03/27 00:23:03;;;;;;;12.20;9.05;;;6.60;99.90;;;;;;2073608;28;20161;-69
2021/03/27 00:24:21;;;;;;;16.05;10.73;;;6.60;99.90;;;;;;2066858;28;20241;-69
2021/03/27 00:25:29;;;;;;;14.63;10.23;;;6.60;99.90;;;;;;2075704;28;20189;-69
2021/03/27 00:26:45;;;;;;;12.35;9.82;;;6.60;99.90;;;;;;2081858;28;20170;-69
2021/03/27 00:27:58;;;;;;;17.23;11.50;;;6.60;99.90;;;;;;2073484;28;20204;-69
2021/03/27 00:29:28;;;;;;;16.58;10.27;;;6.60;99.90;;;;;;2073424;28;20256;-68
2021/03/27 00:31:00;;;;;;;15.27;9.30;;;6.60;99.90;;;;;;2073374;28;20173;-69
2021/03/27 00:32:14;;;;;;;12.55;8.93;;;6.60;99.90;;;;;;2065999;28;20200;-69
2021/03/27 00:33:18;;;;;;;12.75;9.27;;;6.60;99.90;;;;;;2075438;28;20261;-69
2021/03/27 00:34:22;;;;;;;9.85;8.18;;;6.60;99.90;;;;;;2073242;28;20699;-69
2021/03/27 00:35:42;;;;;;;13.40;9.85;;;6.60;99.90;;;;;;2073763;28;20259;-69
2021/03/27 00:36:48;;;;;;;12.18;9.60;;;6.60;99.90;;;;;;2081060;28;20177;-69
2021/03/27 00:37:50;;;;;;;14.43;10.57;;;6.60;99.90;;;;;;2073481;28;20181;-70
2021/03/27 00:39:00;;;;;;;12.98;9.65;;;6.60;99.90;;;;;;2065552;28;20174;-67
2021/03/27 00:40:16;;;;;;;12.23;9.55;;;6.70;99.90;;;;;;2078592;28;20189;-70
2021/03/27 00:41:29;;;;;;;15.57;10.82;;;6.70;99.90;;;;;;2089246;28;20182;-69
2021/03/27 00:42:35;;;;;;;14.82;11.40;;;6.70;99.90;;;;;;2089690;28;20187;-70
2021/03/27 00:43:44;;;;;;;16.27;10.85;;;6.70;99.90;;;;;;2081613;28;20188;-70
2021/03/27 00:44:54;;;;;;;12.80;9.63;;;6.70;99.90;;;;;;2082870;28;20196;-70
2021/03/27 00:45:59;;;;;;;12.48;9.25;;;6.70;99.90;;;;;;2090234;28;20163;-69
2021/03/27 00:47:01;;;;;;;13.32;10.23;;;6.70;99.90;;;;;;2090587;28;20226;-67
2021/03/27 00:48:08;;;;;;;12.98;9.45;;;6.70;99.90;;;;;;2090249;28;20179;-70
2021/03/27 00:49:18;;;;;;;12.57;9.57;;;6.70;99.90;;;;;;2082093;28;20173;-70
2021/03/27 00:50:28;;;;;;;14.70;10.95;;;6.70;99.90;;;;;;2083197;28;20176;-69
2021/03/27 00:51:39;;;;;;;10.75;8.35;;;6.60;99.90;;;;;;2080939;28;20629;-69
2021/03/27 00:52:47;;;;;;;11.93;9.63;;;6.60;99.90;;;;;;2082448;28;20189;-69
2021/03/27 00:53:55;;;;;;;14.25;9.30;;;6.60;99.90;;;;;;2089992;28;20609;-69
2021/03/27 00:55:05;;;;;;;11.77;9.00;;;6.70;99.90;;;;;;2089761;28;20180;-69
2021/03/27 00:56:17;;;;;;;11.25;8.75;;;6.60;99.90;;;;;;2090007;28;20176;-69
2021/03/27 00:57:37;;;;;;;10.75;7.85;;;6.60;99.90;;;;;;2088264;28;20168;-69
2021/03/27 00:58:47;;;;;;;11.63;8.52;;;6.60;99.90;;;;;;2089672;28;20184;-69
2021/03/27 01:00:06;;;;;;;11.35;8.80;;;6.70;99.90;;;;;;2081667;28;20165;-69
2021/03/27 01:01:09;;;;;;;10.77;8.40;;;6.70;99.90;;;;;;2081004;28;20316;-69
2021/03/27 01:02:13;;;;;;;10.98;9.18;;;6.70;99.90;;;;;;2089627;28;20199;-69
2021/03/27 01:03:26;;;;;;;11.07;9.32;;;6.70;99.90;;;;;;2081647;28;20200;-69
2021/03/27 01:04:33;;;;;;;11.70;8.80;;;6.70;99.90;;;;;;2075292;28;20174;-69
2021/03/27 01:05:35;;;;;;;11.65;9.02;;;6.70;99.90;;;;;;2082177;28;20271;-69
2021/03/27 01:06:51;;;;;;;13.07;9.50;;;6.70;99.90;;;;;;2082761;28;20822;-69
2021/03/27 01:07:54;;;;;;;12.10;8.48;;;6.80;99.90;;;;;;2090023;28;20631;-69
2021/03/27 01:08:57;;;;;;;13.02;9.77;;;6.80;99.90;;;;;;2089979;28;20655;-69
2021/03/27 01:10:32;;;;;;;11.32;8.50;;;6.80;99.90;;;;;;2090170;28;20188;-69
2021/03/27 01:12:13;;;;;;;11.70;9.10;;;6.70;99.90;;;;;;2085454;28;20193;-69
2021/03/27 01:13:21;;;;;;;14.32;9.70;;;6.80;99.90;;;;;;2089664;28;20231;-69
2021/03/27 01:14:29;;;;;;;12.23;9.35;;;6.70;99.90;;;;;;2089786;28;20191;-69
2021/03/27 01:15:35;;;;;;;14.05;9.30;;;6.80;99.90;;;;;;2081789;28;20204;-69
2021/03/27 01:16:43;;;;;;;13.23;10.50;;;6.80;99.90;;;;;;2082795;28;20185;-69
2021/03/27 01:17:49;;;;;;;10.93;8.60;;;6.80;99.90;;;;;;2082125;28;20172;-69
2021/03/27 01:19:06;;;;;;;13.27;9.63;;;6.80;99.90;;;;;;2082158;28;20196;-69
2021/03/27 01:20:28;;;;;;;12.95;9.25;;;6.80;99.90;;;;;;2081580;28;20185;-69
2021/03/27 01:21:36;;;;;;;11.88;8.95;;;6.80;99.90;;;;;;2081508;28;20173;-69
2021/03/27 01:22:37;;;;;;;11.27;9.65;;;6.80;99.90;;;;;;2090252;28;20255;-69
2021/03/27 01:23:38;;;;;;;10.70;8.43;;;6.80;99.90;;;;;;2089622;28;20208;-69
2021/03/27 01:24:40;;;;;;;11.48;8.32;;;6.80;99.90;;;;;;2089593;28;20180;-69
2021/03/27 01:25:41;;;;;;;10.82;8.63;;;6.70;99.90;;;;;;2089581;28;20269;-69
2021/03/27 01:26:54;;;;;;;10.10;7.67;;;6.70;99.90;;;;;;2081795;28;20652;-70
2021/03/27 01:28:17;;;;;;;9.65;7.97;;;6.80;99.90;;;;;;2083104;28;20161;-69
2021/03/27 01:29:27;;;;;;;11.20;8.63;;;6.80;99.90;;;;;;2087122;28;20180;-69
2021/03/27 01:30:43;;;;;;;9.65;7.75;;;6.70;99.90;;;;;;2089304;28;20220;-69
2021/03/27 01:32:07;;;;;;;10.50;7.85;;;6.70;99.90;;;;;;2080906;28;20168;-69
2021/03/27 01:33:31;;;;;;;9.35;7.38;;;6.70;99.90;;;;;;2084383;28;20655;-69
2021/03/27 01:34:44;;;;;;;10.40;7.90;;;6.70;99.90;;;;;;2089550;28;20516;-69
2021/03/27 01:35:53;;;;;;;11.27;8.45;;;6.70;99.90;;;;;;2089573;28;20184;-70
2021/03/27 01:37:13;;;;;;;10.55;8.13;;;6.70;99.90;;;;;;2080942;28;20203;-69
2021/03/27 01:38:24;;;;;;;9.68;8.43;;;6.70;99.90;;;;;;2083792;28;20692;-69
2021/03/27 01:39:45;;;;;;;10.48;8.10;;;6.70;99.90;;;;;;2089597;28;20176;-69
2021/03/27 01:41:16;;;;;;;9.75;6.90;;;6.80;99.90;;;;;;2086280;28;20561;-67
2021/03/27 01:42:34;;;;;;;9.13;7.35;;;6.70;99.90;;;;;;2081570;28;20255;-69
2021/03/27 01:43:51;;;;;;;9.95;7.75;;;6.70;99.90;;;;;;2089771;28;20710;-69
2021/03/27 01:45:27;;;;;;;9.15;7.15;;;6.70;99.90;;;;;;2089867;28;20567;-69
2021/03/27 01:46:49;;;;;;;10.55;8.25;;;6.70;99.90;;;;;;2085030;28;20173;-69
2021/03/27 01:48:19;;;;;;;11.60;8.73;;;6.70;99.90;;;;;;2081645;28;20234;-69
2021/03/27 01:49:33;;;;;;;12.57;8.48;;;6.60;99.90;;;;;;2081665;28;20943;-69
2021/03/27 01:50:43;;;;;;;11.57;8.93;;;6.60;99.90;;;;;;2089537;28;20250;-69
2021/03/27 01:52:14;;;;;;;13.55;9.15;;;6.60;99.90;;;;;;2080541;28;20252;-69
2021/03/27 01:53:27;;;;;;;9.27;7.28;;;6.60;99.90;;;;;;2081104;28;20176;-69
2021/03/27 01:55:00;;;;;;;12.85;9.02;;;6.70;99.90;;;;;;2089232;28;20199;-69
2021/03/27 01:56:31;;;;;;;10.18;8.23;;;6.60;99.90;;;;;;2085361;28;20237;-69
2021/03/27 01:57:52;;;;;;;10.05;7.38;;;6.60;99.90;;;;;;2081610;28;20184;-69
2021/03/27 01:59:10;;;;;;;15.30;10.68;;;6.60;99.90;;;;;;2089167;28;20206;-69
2021/03/27 02:00:22;;;;;;;16.00;10.63;;;6.60;99.90;;;;;;2089239;28;20169;-69
2021/03/27 02:01:48;;;;;;;11.00;8.43;;;6.70;99.90;;;;;;2088486;28;20566;-69
2021/03/27 02:03:16;;;;;;;12.40;8.95;;;6.70;99.90;;;;;;2089040;28;20746;-69
2021/03/27 02:04:29;;;;;;;10.00;8.15;;;6.70;99.90;;;;;;2080974;28;20668;-69
2021/03/27 02:05:34;;;;;;;13.45;8.65;;;6.70;99.90;;;;;;2084063;28;20212;-69
2021/03/27 02:06:52;;;;;;;8.38;6.70;;;6.70;99.90;;;;;;2090838;28;20237;-69
2021/03/27 02:08:32;;;;;;;6.13;4.82;;;6.70;99.90;;;;;;2090855;28;20270;-69
2021/03/27 02:09:47;;;;;;;10.05;6.90;;;6.70;99.90;;;;;;2090691;28;20184;-69
2021/03/27 02:11:31;;;;;;;10.13;7.07;;;6.70;99.90;;;;;;2082538;28;20249;-69
2021/03/27 02:12:53;;;;;;;10.27;7.10;;;6.70;99.90;;;;;;2071717;28;20594;-69
2021/03/27 02:14:02;;;;;;;7.03;5.40;;;6.70;99.90;;;;;;2090371;28;20224;-69
2021/03/27 02:15:18;;;;;;;7.13;5.05;;;6.70;99.90;;;;;;2089669;28;20612;-69
2021/03/27 02:16:44;;;;;;;5.80;4.28;;;6.80;99.90;;;;;;2090680;28;20194;-69
2021/03/27 02:17:56;;;;;;;4.53;3.85;;;6.70;99.90;;;;;;2082389;28;20177;-69
2021/03/27 02:19:34;;;;;;;4.10;3.03;;;6.70;99.90;;;;;;2083553;28;20181;-70
2021/03/27 02:21:02;;;;;;;4.80;3.85;;;6.70;99.90;;;;;;2090452;28;20758;-69
2021/03/27 02:22:59;;;;;;;3.80;3.25;;;6.60;99.90;;;;;;2086964;28;20208;-69
2021/03/27 02:24:23;;;;;;;3.45;1.80;;;6.60;99.90;;;;;;2082275;28;20212;-69
2021/03/27 02:25:53;;;;;;;2.67;2.00;;;6.60;99.90;;;;;;2082990;28;20207;-69
2021/03/27 02:27:33;;;;;;;2.00;1.80;;;6.50;99.90;;;;;;2082781;28;20172;-69
2021/03/27 02:28:41;;;;;;;1.50;1.40;;;6.50;99.90;;;;;;2090401;28;20241;-69
2021/03/27 02:30:13;;;;;;;1.50;1.33;;;6.50;99.90;;;;;;2090637;28;20184;-69
2021/03/27 02:31:33;;;;;;;2.50;1.40;;;6.50;99.90;;;;;;2085697;28;20185;-69
2021/03/27 02:32:59;;;;;;;1.67;1.30;;;6.40;99.90;;;;;;2084845;28;20165;-69
2021/03/27 02:34:23;;;;;;;1.90;1.70;;;6.40;99.90;;;;;;2082691;28;20205;-69
2021/03/27 02:35:57;;;;;;;1.92;1.30;;;6.40;99.90;;;;;;2082397;28;20169;-69
2021/03/27 02:37:22;;;;;;;1.58;1.48;;;6.30;99.90;;;;;;2082800;28;20196;-69
2021/03/27 02:38:56;;;;;;;2.55;1.80;;;6.40;99.90;;;;;;2082832;28;20174;-69
2021/03/27 02:40:13;;;;;;;1.73;1.63;;;6.40;99.90;;;;;;2082773;28;20181;-69
2021/03/27 02:41:32;;;;;;;3.70;1.80;;;6.40;99.90;;;;;;2088560;28;20181;-69
2021/03/27 02:42:54;;;;;;;1.63;1.52;;;6.40;99.90;;;;;;2073968;28;20196;-69
2021/03/27 02:44:31;;;;;;;2.03;1.52;;;6.40;99.90;;;;;;2071801;28;20223;-69
2021/03/27 02:46:09;;;;;;;1.90;1.60;;;6.40;99.90;;;;;;2078730;28;20164;-69
2021/03/27 02:47:36;;;;;;;2.00;1.70;;;6.40;99.90;;;;;;2078489;28;20192;-69
2021/03/27 02:49:35;;;;;;;2.33;1.40;;;6.40;99.90;;;;;;2085833;28;20159;-67
2021/03/27 02:50:50;;;;;;;1.63;1.48;;;6.40;99.90;;;;;;2082967;28;20180;-69
2021/03/27 02:52:56;;;;;;;1.90;1.63;;;6.40;99.90;;;;;;2081950;28;20680;-69
2021/03/27 02:54:26;;;;;;;2.97;1.58;;;6.40;99.90;;;;;;2077066;28;20192;-70
2021/03/27 02:55:51;;;;;;;2.53;2.00;;;6.40;99.90;;;;;;2082493;28;20193;-70
2021/03/27 02:57:34;;;;;;;2.25;1.95;;;6.40;99.90;;;;;;2082432;28;20165;-70
2021/03/27 02:59:09;;;;;;;4.00;2.40;;;6.40;99.90;;;;;;2082019;28;20277;-69
2021/03/27 03:00:36;;;;;;;3.22;2.30;;;6.40;99.90;;;;;;2082052;28;20239;-69
2021/03/27 03:02:20;;;;;;;2.03;1.60;;;6.30;99.90;;;;;;2081011;28;20185;-69
2021/03/27 03:03:41;;;;;;;2.15;1.60;;;6.30;99.90;;;;;;2078989;28;20294;-69
2021/03/27 03:05:09;;;;;;;2.03;1.70;;;6.30;99.90;;;;;;2084614;28;20177;-69
2021/03/27 03:06:45;;;;;;;2.03;1.70;;;6.20;99.90;;;;;;2082036;28;20176;-69
2021/03/27 03:08:23;;;;;;;1.70;1.50;;;6.20;99.90;;;;;;2086494;28;20176;-69
2021/03/27 03:09:49;;;;;;;1.73;1.50;;;6.20;99.90;;;;;;2085319;28;20200;-69
2021/03/27 03:11:14;;;;;;;2.25;1.83;;;6.20;99.90;;;;;;2081236;28;20172;-69
2021/03/27 03:13:22;;;;;;;1.95;1.60;;;6.20;99.90;;;;;;2085157;28;20194;-69
2021/03/27 03:14:52;;;;;;;1.60;1.40;;;6.20;99.90;;;;;;2077620;28;20223;-69
2021/03/27 03:16:28;;;;;;;2.83;1.60;;;6.10;99.90;;;;;;2082354;28;20214;-69
2021/03/27 03:17:51;;;;;;;1.60;1.50;;;6.10;99.90;;;;;;2081721;28;20194;-69
2021/03/27 03:18:59;;;;;;;2.55;1.80;;;6.00;99.90;;;;;;2084567;28;20183;-69
2021/03/27 03:20:52;;;;;;;2.10;1.85;;;6.00;99.90;;;;;;2089323;28;20176;-69
2021/03/27 03:22:06;;;;;;;2.72;1.90;;;6.00;99.90;;;;;;2065234;28;20559;-69
2021/03/27 03:23:17;;;;;;;3.42;1.83;;;5.90;99.90;;;;;;2076863;28;20274;-69
2021/03/27 03:24:50;;;;;;;2.58;1.85;;;6.00;99.90;;;;;;2074457;28;20196;-69
2021/03/27 03:26:14;;;;;;;2.70;1.83;;;6.00;99.90;;;;;;2082045;28;20555;-69
2021/03/27 03:27:18;;;;;;;2.28;1.80;;;5.90;99.90;;;;;;2089768;28;20197;-69
2021/03/27 03:28:55;;;;;;;2.03;1.67;;;5.80;99.90;;;;;;2089482;28;20194;-69
2021/03/27 03:30:33;;;;;;;2.40;2.10;;;5.80;99.90;;;;;;2074951;28;20228;-69
2021/03/27 03:32:12;;;;;;;2.40;2.10;;;5.80;99.90;;;;;;2081215;28;20210;-69
2021/03/27 03:33:36;;;;;;;2.47;1.92;;;5.90;99.90;;;;;;2081873;28;20188;-69
2021/03/27 03:35:17;;;;;;;5.97;2.45;;;5.90;99.90;;;;;;2082159;28;20639;-69
2021/03/27 03:36:53;;;;;;;2.47;2.10;;;6.00;99.90;;;;;;2082233;28;20183;-69
2021/03/27 03:38:15;;;;;;;2.78;2.28;;;6.00;99.90;;;;;;2081711;28;20214;-70
2021/03/27 03:39:48;;;;;;;4.20;3.00;;;6.00;99.90;;;;;;2085649;28;20206;-70
2021/03/27 03:40:48;;;;;;;4.40;2.50;;;6.10;99.90;;;;;;2083258;28;20584;-69
2021/03/27 03:41:58;;;;;;;3.33;2.73;;;6.10;99.90;;;;;;2082302;28;20184;-69
2021/03/27 03:43:51;;;;;;;3.90;2.53;;;6.10;99.90;;;;;;2081377;28;20691;-69
2021/03/27 03:46:10;;;;;;;4.00;2.70;;;6.10;99.90;;;;;;2063708;28;20258;-69
2021/03/27 03:47:48;;;;;;;3.85;2.60;;;6.20;99.90;;;;;;2073171;28;20208;-69
2021/03/27 03:49:40;;;;;;;3.85;2.80;;;6.10;99.90;;;;;;2090049;28;20184;-69
2021/03/27 03:51:21;;;;;;;1.42;1.25;;;6.00;99.90;;;;;;2090147;28;20657;-69
2021/03/27 03:52:51;;;;;;;1.80;1.38;;;5.80;99.90;;;;;;2084463;28;20195;-69
2021/03/27 03:54:18;;;;;;;2.60;1.20;;;5.60;99.90;;;;;;2081552;28;20270;-69
2021/03/27 03:55:57;;;;;;;1.20;1.10;;;5.40;99.90;;;;;;2081664;28;20170;-69
2021/03/27 03:57:26;;;;;;;1.67;1.20;;;5.30;99.90;;;;;;2080993;28;20181;-69
2021/03/27 03:58:50;;;;;;;1.27;1.05;;;5.30;99.90;;;;;;2082699;28;20201;-69
2021/03/27 03:59:58;;;;;;;1.17;1.08;;;5.20;99.90;;;;;;2082999;28;20328;-69
2021/03/27 04:01:14;;;;;;;1.50;1.40;;;5.00;99.90;;;;;;2083488;28;20186;-69
2021/03/27 04:02:37;;;;;;;1.08;0.98;;;4.90;99.90;;;;;;2089600;28;20164;-69
2021/03/27 04:04:06;;;;;;;1.25;1.10;;;4.90;99.90;;;;;;2082140;28;20199;-69
2021/03/27 04:05:22;;;;;;;1.30;1.20;;;4.80;99.90;;;;;;2082020;28;20888;-69
2021/03/27 04:06:27;;;;;;;1.70;1.27;;;4.70;99.90;;;;;;2081577;28;20190;-69
2021/03/27 04:07:38;;;;;;;1.50;1.40;;;4.60;99.90;;;;;;2081942;28;20228;-69
2021/03/27 04:08:52;;;;;;;2.97;1.48;;;4.60;99.90;;;;;;2081670;28;20669;-69
2021/03/27 04:10:13;;;;;;;1.50;1.40;;;4.60;99.90;;;;;;2075036;28;20164;-69
2021/03/27 04:12:29;;;;;;;1.60;1.50;;;4.40;99.90;;;;;;2085671;28;20287;-65
2021/03/27 04:13:40;;;;;;;3.13;1.50;;;4.40;99.90;;;;;;2081398;28;20170;-65
2021/03/27 04:15:26;;;;;;;1.58;1.45;;;4.30;99.90;;;;;;2080798;28;20189;-65
2021/03/27 04:16:29;;;;;;;2.05;1.40;;;4.30;99.90;;;;;;2081224;28;20181;-65
2021/03/27 04:18:19;;;;;;;1.67;1.42;;;4.20;99.90;;;;;;2080766;28;20562;-65
2021/03/27 04:19:26;;;;;;;1.10;1.00;;;4.20;99.90;;;;;;2087476;28;20180;-65
2021/03/27 04:20:46;;;;;;;1.08;0.98;;;4.10;99.90;;;;;;2080786;28;20619;-65
2021/03/27 04:22:07;;;;;;;2.55;1.02;;;4.10;99.90;;;;;;2074543;28;20255;-65
2021/03/27 04:23:41;;;;;;;0.98;0.98;;;4.10;99.90;;;;;;2080731;28;20181;-65
2021/03/27 04:25:04;;;;;;;1.02;0.93;;;4.00;99.90;;;;;;2081304;28;20254;-65
2021/03/27 04:26:41;;;;;;;1.27;1.17;;;4.00;99.90;;;;;;2080507;28;20227;-65
2021/03/27 04:28:16;;;;;;;2.17;1.00;;;4.00;99.90;;;;;;2080251;28;20185;-66
2021/03/27 04:29:59;;;;;;;1.70;1.00;;;4.00;99.90;;;;;;2050169;28;20198;-65
2021/03/27 04:31:08;;;;;;;1.52;1.20;;;3.90;99.90;;;;;;2070002;28;20595;-66
2021/03/27 04:32:56;;;;;;;1.67;1.05;;;3.90;99.90;;;;;;2073434;28;20212;-65
2021/03/27 04:34:30;;;;;;;1.77;1.10;;;3.80;99.90;;;;;;2078495;28;20579;-66
2021/03/27 04:35:48;;;;;;;1.35;1.25;;;3.80;99.90;;;;;;2080896;28;20177;-65
2021/03/27 04:37:05;;;;;;;1.73;1.10;;;3.80;99.90;;;;;;2081083;28;20211;-65
2021/03/27 04:38:20;;;;;;;1.30;1.13;;;3.80;99.90;;;;;;2080587;28;20273;-65
2021/03/27 04:39:48;;;;;;;2.63;1.23;;;3.80;99.90;;;;;;2074071;28;20260;-65
2021/03/27 04:41:36;;;;;;;1.27;1.17;;;3.80;99.90;;;;;;2075561;28;20185;-66
2021/03/27 04:43:02;;;;;;;1.10;1.00;;;3.80;99.90;;;;;;2080950;28;20735;-65
2021/03/27 04:44:22;;;;;;;1.65;1.00;;;3.70;99.90;;;;;;2080331;28;20271;-65
2021/03/27 04:45:29;;;;;;;2.10;1.00;;;3.70;99.90;;;;;;2080598;28;20197;-66
2021/03/27 04:46:41;;;;;;;2.25;1.10;;;3.70;99.90;;;;;;2081152;28;20188;-66
2021/03/27 04:48:25;;;;;;;1.30;0.98;;;3.70;99.90;;;;;;2080395;28;20268;-66
2021/03/27 04:50:02;;;;;;;0.85;0.80;;;3.70;99.90;;;;;;2069251;28;20188;-65
2021/03/27 04:51:40;;;;;;;2.00;1.40;;;3.70;99.90;;;;;;2075699;28;20682;-65
2021/03/27 04:53:11;;;;;;;0.73;0.73;;;3.70;99.90;;;;;;2077374;28;20659;-65
2021/03/27 04:54:44;;;;;;;2.58;1.20;;;3.60;99.90;;;;;;2072309;28;20228;-66
2021/03/27 04:56:18;;;;;;;0.95;0.82;;;3.60;99.90;;;;;;2072417;28;20166;-65
2021/03/27 04:57:50;;;;;;;1.40;1.10;;;3.70;99.90;;;;;;2072807;28;20603;-65
2021/03/27 04:59:09;;;;;;;2.25;1.00;;;3.60;99.90;;;;;;2072911;28;20185;-66
2021/03/27 05:00:45;;;;;;;1.40;1.10;;;3.60;99.90;;;;;;2072906;28;20552;-66
2021/03/27 05:01:56;;;;;;;1.42;1.20;;;3.60;99.90;;;;;;2071571;28;20212;-65
2021/03/27 05:03:11;;;;;;;2.00;1.13;;;3.60;99.90;;;;;;2064308;28;20182;-65
2021/03/27 05:04:24;;;;;;;1.30;1.02;;;3.60;99.90;;;;;;2066199;28;20252;-65
2021/03/27 05:05:33;;;;;;;1.33;1.23;;;3.60;99.90;;;;;;2072169;28;20166;-65
2021/03/27 05:06:49;;;;;;;1.55;1.30;;;3.70;99.90;;;;;;2065188;28;20176;-65
2021/03/27 05:08:01;;;;;;;1.83;1.08;;;3.60;99.90;;;;;;2065982;28;20190;-65
2021/03/27 05:09:23;;;;;;;1.60;1.10;;;3.60;99.90;;;;;;2065713;28;20229;-65
2021/03/27 05:10:33;;;;;;;1.90;1.10;;;3.60;99.90;;;;;;2066894;28;20269;-65
2021/03/27 05:11:43;;;;;;;1.70;1.00;;;3.60;99.90;;;;;;2064516;28;20194;-65
2021/03/27 05:12:55;;;;;;;1.52;1.20;;;3.60;99.90;;;;;;2065415;28;20167;-65
2021/03/27 05:14:15;;;;;;;3.17;1.10;;;3.50;99.90;;;;;;2065440;28;20174;-65
2021/03/27 05:15:42;;;;;;;1.75;1.10;;;3.60;99.90;;;;;;2066648;28;20166;-65
2021/03/27 05:17:03;;;;;;;1.10;1.00;;;3.60;99.90;;;;;;2075505;28;20178;-65
2021/03/27 05:18:39;;;;;;;2.45;1.10;;;3.60;99.90;;;;;;2072130;28;20234;-65
2021/03/27 05:19:55;;;;;;;1.38;0.93;;;3.60;99.90;;;;;;2068729;28;20376;-65
2021/03/27 05:21:09;;;;;;;1.38;1.10;;;3.60;99.90;;;;;;2071709;28;20590;-65
2021/03/27 05:22:32;;;;;;;1.20;1.00;;;3.60;99.90;;;;;;2071873;28;20230;-65
2021/03/27 05:24:03;;;;;;;1.40;1.10;;;3.50;99.90;;;;;;2072082;28;20221;-65
2021/03/27 05:25:22;;;;;;;1.13;1.02;;;3.50;99.90;;;;;;2072045;28;20597;-65
2021/03/27 05:26:52;;;;;;;1.10;1.00;;;3.50;99.90;;;;;;2072363;28;20177;-66
2021/03/27 05:28:23;;;;;;;2.80;1.10;;;3.50;99.90;;;;;;2072487;28;20676;-65
2021/03/27 05:29:32;;;;;;;0.90;0.90;;;3.40;99.90;;;;;;2072644;28;20720;-65
2021/03/27 05:31:07;;;;;;;1.25;1.10;;;3.40;99.90;;;;;;2072607;28;20177;-65
2021/03/27 05:32:48;;;;;;;0.85;0.85;;;3.40;99.90;;;;;;2072509;28;20204;-65
2021/03/27 05:34:10;;;;;;;1.98;0.95;;;3.40;99.90;;;;;;2072614;28;20324;-65
2021/03/27 05:35:23;;;;;;;1.50;1.00;;;3.30;99.90;;;;;;2072049;28;20247;-65
2021/03/27 05:37:01;;;;;;;1.00;0.90;;;3.30;99.90;;;;;;2072024;28;20180;-66
2021/03/27 05:38:21;;;;;;;1.50;0.98;;;3.30;99.90;;;;;;2068842;28;20172;-66
2021/03/27 05:39:48;;;;;;;1.20;1.10;;;3.20;99.90;;;;;;2066301;28;20265;-65
2021/03/27 05:41:25;;;;;;;1.13;1.00;;;3.20;99.90;;;;;;2071784;28;20253;-66
2021/03/27 05:43:32;;;;;;;1.15;1.05;;;3.20;99.90;;;;;;2072501;28;20265;-66
2021/03/27 05:45:28;;;;;;;2.05;1.02;;;3.10;99.90;;;;;;2071879;28;20208;-65
2021/03/27 05:46:59;;;;;;;1.10;1.00;;;3.10;99.90;;;;;;2072671;28;20184;-65
2021/03/27 05:48:48;;;;;;;1.00;0.80;;;3.00;99.90;;;;;;2072452;28;20186;-65
2021/03/27 05:50:02;;;;;;;0.90;0.90;;;3.10;99.90;;;;;;2072336;28;20184;-66
2021/03/27 05:51:20;;;;;;;0.98;0.88;;;3.10;99.90;;;;;;2071411;28;20235;-66
2021/03/27 05:53:05;;;;;;;1.65;0.90;;;3.00;99.90;;;;;;2072121;28;20308;-66
2021/03/27 05:54:52;;;;;;;2.92;0.85;;;3.00;99.90;;;;;;2072283;28;20324;-66
2021/03/27 05:56:22;;;;;;;1.98;1.10;;;3.00;99.90;;;;;;2071773;28;20185;-65
2021/03/27 05:57:48;;;;;;;1.30;1.20;;;3.00;99.90;;;;;;2072364;28;20178;-65
2021/03/27 05:59:22;;;;;;;1.88;0.90;;;3.00;99.90;;;;;;2071986;28;20189;-65
2021/03/27 06:00:49;;;;;;;2.42;1.00;;;3.00;99.90;;;;;;2071638;28;20212;-65
2021/03/27 06:02:56;;;;;;;2.38;0.93;;;3.10;99.90;;;;;;2071653;28;20197;-65
2021/03/27 06:04:16;;;;;;;2.65;1.02;;;3.20;99.90;;;;;;2054794;28;20195;-66
2021/03/27 06:05:53;;;;;;;2.05;0.93;;;3.10;99.90;;;;;;2055243;28;20242;-65
2021/03/27 06:07:30;;;;;;;2.45;0.90;;;3.20;99.90;;;;;;2072492;28;20216;-65
2021/03/27 06:08:49;;;;;;;2.80;1.10;;;3.10;99.90;;;;;;2072356;28;20709;-65
2021/03/27 06:10:11;;;;;;;1.50;0.80;;;3.10;99.90;;;;;;2071757;28;20170;-66
2021/03/27 06:11:25;;;;;;;0.93;0.73;;;3.00;99.90;;;;;;2071363;28;20801;-65
2021/03/27 06:12:57;;;;;;;1.80;1.20;;;3.00;99.90;;;;;;2072333;28;20176;-66
2021/03/27 06:14:34;;;;;;;3.63;2.50;;;3.00;99.90;;;;;;2072377;28;20792;-65
2021/03/27 06:16:11;;;;;;;3.20;2.85;;;3.10;99.90;;;;;;2053976;28;20172;-65
2021/03/27 06:17:32;;;;;;;5.32;3.80;;;3.10;99.90;;;;;;2072420;28;20245;-65
2021/03/27 06:19:17;;;;;;;2.50;2.30;;;3.10;99.90;;;;;;2072241;28;20177;-65
2021/03/27 06:20:51;;;;;;;3.30;1.20;;;3.10;99.90;;;;;;2072345;28;20177;-65
2021/03/27 06:22:19;;;;;;;2.72;1.83;;;3.10;99.90;;;;;;2040681;28;20303;-65
2021/03/27 06:24:14;;;;;;;2.33;1.95;;;3.10;99.90;;;;;;2072038;28;20208;-65
2021/03/27 06:25:39;;;;;;;0.90;0.90;;;3.10;99.90;;;;;;2072359;28;20186;-65
2021/03/27 06:27:24;;;;;;;2.15;1.13;;;3.10;99.90;;;;;;2072263;28;20162;-65
2021/03/27 06:29:05;;;;;;;3.63;1.73;;;3.10;99.90;;;;;;2047127;29;20197;-65
2021/03/27 06:30:26;;;;;;;1.88;1.30;;;3.20;99.90;;;;;;2039294;29;20181;-65
2021/03/27 06:32:12;;;;;;;2.78;1.42;;;3.10;99.90;;;;;;2041091;29;20652;-65
2021/03/27 06:34:11;;;;;;;2.60;1.20;;;3.10;99.90;;;;;;2047240;29;20227;-66
2021/03/27 06:35:51;;;;;;;3.88;1.90;;;3.10;99.90;;;;;;2071759;28;20739;-67
2021/03/27 06:37:09;;;;;;;3.33;2.10;;;3.10;99.90;;;;;;2071764;28;20228;-67
2021/03/27 06:38:55;;;;;;;1.88;1.10;;;3.10;99.90;;;;;;2071739;28;20197;-66
2021/03/27 06:40:03;;;;;;;3.40;2.50;;;3.10;99.90;;;;;;2071611;28;20178;-66
2021/03/27 06:42:08;;;;;;;2.47;1.98;;;3.10;99.90;;;;;;2071207;28;20181;-67
2021/03/27 06:43:45;;;;;;;2.35;1.70;;;3.10;99.90;;;;;;2072263;28;20190;-66
2021/03/27 06:45:41;;;;;;;2.78;1.73;;;3.20;99.90;;;;;;2071729;28;20193;-66
2021/03/27 06:47:13;;;;;;;2.42;1.88;;;3.20;99.90;;;;;;2072283;28;20177;-66
2021/03/27 06:48:51;;;;;;;2.13;1.30;;;3.20;99.90;;;;;;2072225;28;20179;-66
2021/03/27 06:50:19;;;;;;;3.35;1.40;;;3.20;99.90;;;;;;2072175;28;20254;-66
2021/03/27 06:51:33;;;;;;;2.85;1.20;;;3.20;99.90;;;;;;2072773;28;20204;-66
2021/03/27 06:52:47;;;;;;;5.22;1.65;;;3.10;99.90;;;;;;2076285;28;20223;-67
2021/03/27 06:54:37;;;;;;;6.43;2.40;;;3.20;99.90;;;;;;2073044;28;20173;-66
2021/03/27 06:56:02;;;;;;;2.55;1.40;;;3.20;99.90;;;;;;2073839;28;20208;-66
2021/03/27 06:57:32;;;;;;;2.00;1.20;;;3.30;99.90;;;;;;2074001;28;20180;-66
2021/03/27 06:59:18;;;;;;;2.33;1.38;;;3.30;99.90;;;;;;2073120;28;20200;-66
2021/03/27 07:01:14;;;;;;;3.13;2.25;;;3.40;99.90;;;;;;2034804;29;20323;-66
2021/03/27 07:02:42;;;;;;;3.45;1.52;;;3.50;99.90;;;;;;2073668;28;20677;-66
2021/03/27 07:04:34;;;;;;;2.88;1.35;;;3.60;99.90;;;;;;2073843;28;20259;-66
2021/03/27 07:06:12;;;;;;;9.00;3.45;;;3.50;99.90;;;;;;2073067;28;20166;-66
2021/03/27 07:07:59;;;;;;;3.17;1.10;;;3.40;99.90;;;;;;2073393;28;20181;-66
2021/03/27 07:09:31;;;;;;;3.58;1.70;;;3.30;99.90;;;;;;2073088;28;20197;-66
2021/03/27 07:10:55;;;;;;;8.05;3.38;;;3.30;99.90;;;;;;2073486;28;20535;-66
2021/03/27 07:12:29;;;;;;;3.80;1.75;;;3.40;99.90;;;;;;2073596;28;20221;-66
2021/03/27 07:14:07;;;;;;;3.67;1.92;;;3.40;99.90;;;;;;2073838;28;20170;-66
2021/03/27 07:15:51;;;;;;;6.22;3.67;;;3.50;99.90;;;;;;2073459;28;20312;-66
2021/03/27 07:17:19;;;;;;;6.68;3.72;;;3.50;99.90;;;;;;2073646;28;20166;-67
2021/03/27 07:18:38;;;;;;;6.72;3.08;;;3.60;99.90;;;;;;2073032;28;20243;-67
2021/03/27 07:20:01;;;;;;;1.90;0.82;;;3.60;99.90;;;;;;2073277;28;20200;-66
2021/03/27 07:21:10;;;;;;;2.78;1.10;;;3.60;99.90;;;;;;2072209;28;20178;-67
2021/03/27 07:22:29;;;;;;;1.88;1.20;;;3.60;99.90;;;;;;2073026;28;20560;-67
2021/03/27 07:23:52;;;;;;;2.40;1.75;;;3.50;99.90;;;;;;2073438;28;20174;-67
2021/03/27 07:25:23;;;;;;;5.38;1.90;;;3.60;99.90;;;;;;2073063;28;20184;-66